Time;durP1;ratioP1;P1;durP2;ratioP2;P2;SDS_P1;SDS_P2;PMS_P1;PMS_P2;Temp;Humidity;BMP_temperature;BMP_pressure;BME280_temperature;BME280_humidity;BME280_pressure;Samples;Min_cycle;Max_cycle;Signal;HPM_P1;HPM_P2
2022/09/16 00:00:33;;;;;;;1.70;1.00;;;14.40;91.70;;;;;;4987043;28;20920;-62
2022/09/16 00:03:00;;;;;;;5.67;1.27;;;14.30;72.30;;;;;;4985797;28;20327;-62
2022/09/16 00:05:28;;;;;;;3.70;1.70;;;14.30;99.90;;;;;;4987187;28;20232;-62
2022/09/16 00:07:55;;;;;;;6.20;1.50;;;14.20;99.90;;;;;;4986871;28;20235;-62
2022/09/16 00:10:22;;;;;;;5.83;1.50;;;14.10;99.90;;;;;;4985075;28;20194;-61
2022/09/16 00:12:50;;;;;;;6.03;1.60;;;14.10;99.90;;;;;;4994737;28;20233;-62
2022/09/16 00:15:17;;;;;;;3.23;1.43;;;14.10;99.90;;;;;;5000967;28;20208;-61
2022/09/16 00:17:44;;;;;;;2.83;1.30;;;14.10;99.90;;;;;;5005654;28;20221;-61
2022/09/16 00:20:11;;;;;;;6.17;1.90;;;14.20;99.90;;;;;;5005364;28;20193;-61
2022/09/16 00:22:38;;;;;;;4.57;1.80;;;14.10;99.90;;;;;;5006746;28;20189;-61
2022/09/16 00:25:05;;;;;;;3.83;1.20;;;14.00;99.90;;;;;;5005051;28;20244;-61
2022/09/16 00:27:32;;;;;;;4.77;1.30;;;13.90;99.90;;;;;;5005144;28;20188;-61
2022/09/16 00:29:59;;;;;;;2.53;1.40;;;13.90;99.90;;;;;;4988273;28;20196;-63
2022/09/16 00:32:26;;;;;;;6.50;1.87;;;14.00;99.90;;;;;;4998897;28;20638;-61
2022/09/16 00:34:53;;;;;;;3.83;1.53;;;13.90;99.90;;;;;;5006267;28;20835;-61
2022/09/16 00:37:20;;;;;;;4.50;1.60;;;14.00;99.90;;;;;;5005069;28;20204;-62
2022/09/16 00:39:48;;;;;;;6.13;1.90;;;14.20;99.90;;;;;;5006599;28;20205;-61
2022/09/16 00:42:16;;;;;;;5.67;1.70;;;14.00;99.90;;;;;;5007065;28;20287;-61
2022/09/16 00:44:51;;;;;;;7.83;1.80;;;14.00;99.90;;;;;;5003601;28;20224;-61
2022/09/16 00:47:42;;;;;;;3.50;1.63;;;14.10;99.90;;;;;;5005597;28;20206;-61
2022/09/16 00:50:19;;;;;;;3.73;1.63;;;14.10;99.90;;;;;;5005909;28;20340;-61
2022/09/16 00:52:48;;;;;;;4.63;1.90;;;14.00;99.90;;;;;;5004889;28;20192;-62
2022/09/16 00:55:21;;;;;;;3.80;1.50;;;14.00;99.90;;;;;;5004827;28;20276;-62
2022/09/16 00:57:49;;;;;;;1.93;1.20;;;14.00;99.90;;;;;;5003964;28;20287;-62
2022/09/16 01:00:16;;;;;;;3.30;1.43;;;14.00;1.00;;;;;;5005455;28;20280;-62
2022/09/16 01:02:45;;;;;;;3.43;1.60;;;13.90;99.90;;;;;;5006006;28;20311;-61
2022/09/16 01:05:19;;;;;;;3.97;1.40;;;13.90;99.90;;;;;;5020454;28;20620;-60
2022/09/16 01:07:48;;;;;;;3.33;1.10;;;14.00;1.00;;;;;;5002933;28;20197;-62
2022/09/16 01:10:22;;;;;;;4.60;1.70;;;13.90;99.90;;;;;;5005332;28;20192;-62
2022/09/16 01:12:56;;;;;;;2.43;1.20;;;13.80;99.90;;;;;;5004922;28;20288;-62
2022/09/16 01:15:51;;;;;;;3.80;1.30;;;14.00;99.90;;;;;;5003835;28;20181;-62
2022/09/16 01:18:36;;;;;;;3.33;1.73;;;13.90;99.40;;;;;;5003122;28;20205;-61
2022/09/16 01:21:17;;;;;;;4.83;1.17;;;13.80;99.90;;;;;;5005430;28;20196;-61
2022/09/16 01:23:59;;;;;;;2.43;1.27;;;13.60;99.90;;;;;;5004981;28;20226;-61
2022/09/16 01:26:47;;;;;;;3.57;1.30;;;13.70;99.90;;;;;;5005911;28;20939;-61
2022/09/16 01:29:43;;;;;;;5.50;1.30;;;13.50;99.90;;;;;;5005446;28;20219;-60
2022/09/16 01:32:52;;;;;;;3.03;1.50;;;13.60;99.90;;;;;;5003742;28;20199;-62
2022/09/16 01:35:34;;;;;;;3.30;1.17;;;13.70;99.90;;;;;;4972730;28;20301;-62
2022/09/16 01:38:27;;;;;;;6.13;1.67;;;13.70;99.90;;;;;;5002492;28;20192;-61
2022/09/16 01:41:23;;;;;;;13.10;1.60;;;13.70;99.90;;;;;;5004353;28;20209;-61
2022/09/16 01:44:09;;;;;;;4.20;1.23;;;13.70;99.90;;;;;;5004262;28;20213;-62
2022/09/16 01:47:03;;;;;;;3.77;1.10;;;14.10;99.90;;;;;;5021091;28;20196;-61
2022/09/16 01:49:52;;;;;;;3.87;1.30;;;14.00;99.90;;;;;;5004946;28;20671;-61
2022/09/16 01:52:22;;;;;;;2.93;1.13;;;13.80;99.90;;;;;;5019679;28;20199;-61
2022/09/16 01:55:01;;;;;;;3.70;1.20;;;14.00;99.90;;;;;;5005323;28;20204;-61
2022/09/16 01:57:43;;;;;;;4.53;1.57;;;14.10;99.90;;;;;;5003276;28;20199;-61
2022/09/16 02:00:13;;;;;;;2.43;1.00;;;14.00;99.90;;;;;;5001678;28;20557;-61
2022/09/16 02:02:54;;;;;;;6.77;1.60;;;14.20;99.90;;;;;;5003752;28;20708;-62
2022/09/16 02:05:27;;;;;;;6.83;2.00;;;14.10;99.90;;;;;;5004908;28;20299;-62
2022/09/16 02:08:03;;;;;;;3.03;1.40;;;14.10;99.90;;;;;;5002466;28;20201;-60
2022/09/16 02:10:39;;;;;;;2.97;1.30;;;13.90;99.90;;;;;;5004188;28;20196;-60
2022/09/16 02:13:25;;;;;;;3.70;1.33;;;13.70;99.90;;;;;;5003244;28;20240;-59
2022/09/16 02:16:00;;;;;;;3.10;1.40;;;13.90;99.90;;;;;;5004109;28;20193;-59
2022/09/16 02:18:33;;;;;;;4.57;1.30;;;13.90;99.90;;;;;;4982233;28;20207;-59
2022/09/16 02:21:04;;;;;;;3.93;1.50;;;14.00;99.90;;;;;;5004338;28;20568;-57
2022/09/16 02:23:41;;;;;;;4.07;1.20;;;14.00;99.90;;;;;;5018727;28;20200;-59
2022/09/16 02:26:10;;;;;;;5.43;1.40;;;14.00;99.90;;;;;;5003555;28;20283;-59
2022/09/16 02:28:41;;;;;;;7.30;1.30;;;14.00;99.90;;;;;;5004381;28;20662;-59
2022/09/16 02:31:13;;;;;;;7.77;1.50;;;14.00;99.90;;;;;;5002455;28;20542;-59
2022/09/16 02:33:46;;;;;;;4.57;1.47;;;13.90;99.90;;;;;;5004054;28;20205;-60
2022/09/16 02:36:18;;;;;;;4.47;1.30;;;13.90;99.90;;;;;;5004105;28;20281;-59
2022/09/16 02:38:49;;;;;;;3.50;1.63;;;14.10;99.90;;;;;;5002456;28;20221;-58
2022/09/16 02:41:16;;;;;;;3.60;1.23;;;14.00;99.90;;;;;;4991384;28;20213;-59
2022/09/16 02:43:44;;;;;;;2.60;1.40;;;14.00;1.00;;;;;;4997209;28;20217;-59
2022/09/16 02:46:20;;;;;;;4.53;1.57;;;14.10;99.90;;;;;;5019438;28;20887;-59
2022/09/16 02:49:06;;;;;;;2.13;1.13;;;14.20;99.90;;;;;;5008075;28;20283;-59
2022/09/16 02:51:57;;;;;;;5.17;1.30;;;14.00;99.90;;;;;;5005501;28;20201;-59
2022/09/16 02:54:31;;;;;;;5.83;1.60;;;14.00;99.90;;;;;;5008454;28;20672;-59
2022/09/16 02:56:58;;;;;;;5.10;2.03;;;13.80;99.90;;;;;;4988987;28;20201;-58
2022/09/16 02:59:25;;;;;;;4.17;1.53;;;13.90;1.00;;;;;;5003982;28;20200;-59
2022/09/16 03:01:52;;;;;;;4.30;1.70;;;13.80;99.90;;;;;;5009276;28;20201;-61
2022/09/16 03:04:20;;;;;;;4.60;1.90;;;13.80;99.90;;;;;;5007454;28;20243;-62
2022/09/16 03:06:47;;;;;;;5.50;1.50;;;13.60;1.00;;;;;;4991640;28;20280;-61
2022/09/16 03:09:16;;;;;;;6.97;1.83;;;13.50;99.90;;;;;;4990794;28;20208;-60
2022/09/16 03:12:28;;;;;;;5.57;1.70;;;13.30;99.90;;;;;;5004518;28;20275;-60
2022/09/16 03:15:16;;;;;;;4.87;1.83;;;13.30;1.00;;;;;;4928575;29;20318;-60
2022/09/16 03:17:57;;;;;;;2.47;1.30;;;13.20;1.00;;;;;;4932203;29;20286;-59
2022/09/16 03:20:27;;;;;;;6.30;1.73;;;13.50;16.10;;;;;;4983269;28;20235;-60
2022/09/16 03:23:10;;;;;;;4.47;1.67;;;13.50;1.00;;;;;;5006355;28;20197;-59
2022/09/16 03:26:04;;;;;;;4.17;1.90;;;13.40;1.00;;;;;;5006466;28;20212;-59
2022/09/16 03:28:55;;;;;;;6.40;1.83;;;13.40;1.00;;;;;;4989030;28;20668;-59
2022/09/16 03:31:51;;;;;;;4.83;1.87;;;13.40;1.00;;;;;;5005388;28;20199;-59
2022/09/16 03:34:39;;;;;;;5.03;2.37;;;13.50;1.00;;;;;;4943279;28;20223;-59
2022/09/16 03:37:12;;;;;;;3.50;1.93;;;13.60;1.00;;;;;;5006980;28;20189;-59
2022/09/16 03:39:40;;;;;;;6.53;2.53;;;13.50;1.00;;;;;;4999853;28;20197;-60
2022/09/16 03:42:10;;;;;;;4.60;2.07;;;13.50;1.00;;;;;;5006853;28;20197;-60
2022/09/16 03:44:39;;;;;;;5.57;2.80;;;13.50;1.00;;;;;;5006898;28;20328;-60
2022/09/16 03:47:06;;;;;;;3.60;1.97;;;13.40;1.00;;;;;;5006725;28;20292;-59
2022/09/16 03:49:34;;;;;;;6.23;2.23;;;13.40;1.00;;;;;;5005985;28;20213;-60
2022/09/16 03:52:04;;;;;;;6.73;2.33;;;13.50;1.00;;;;;;5006764;28;20279;-60
2022/09/16 03:54:31;;;;;;;5.77;2.43;;;13.40;1.00;;;;;;5005297;28;20563;-59
2022/09/16 03:56:59;;;;;;;7.50;2.60;;;13.40;1.00;;;;;;5007610;28;20203;-60
2022/09/16 03:59:27;;;;;;;5.20;2.10;;;13.40;1.00;;;;;;5006167;28;20562;-58
2022/09/16 04:01:54;;;;;;;6.73;2.33;;;13.30;1.00;;;;;;5002484;28;20208;-59
2022/09/16 04:04:22;;;;;;;4.67;1.97;;;13.40;1.00;;;;;;4981154;28;20217;-58
2022/09/16 04:06:49;;;;;;;5.13;2.27;;;13.60;1.00;;;;;;4999547;28;20525;-60
2022/09/16 04:09:16;;;;;;;7.27;2.57;;;13.60;99.90;;;;;;5006967;28;20192;-60
2022/09/16 04:11:43;;;;;;;3.47;1.77;;;13.40;1.00;;;;;;5004167;28;20303;-60
2022/09/16 04:14:10;;;;;;;5.47;2.10;;;13.60;1.00;;;;;;4983371;28;20205;-60
2022/09/16 04:16:37;;;;;;;9.30;2.67;;;13.60;1.00;;;;;;4978350;28;20729;-60
2022/09/16 04:19:12;;;;;;;7.50;2.33;;;13.70;1.00;;;;;;5000956;28;20193;-60
2022/09/16 04:21:40;;;;;;;5.57;2.27;;;13.70;99.90;;;;;;4977882;28;20197;-59
2022/09/16 04:24:07;;;;;;;9.27;2.33;;;13.70;99.90;;;;;;4984881;28;20284;-59
2022/09/16 04:26:40;;;;;;;7.97;2.37;;;13.80;1.00;;;;;;4986376;28;20277;-59
2022/09/16 04:29:07;;;;;;;6.63;2.03;;;14.00;1.00;;;;;;4986979;28;20194;-59
2022/09/16 04:31:34;;;;;;;5.83;2.40;;;13.90;1.00;;;;;;4987510;28;20284;-59
2022/09/16 04:34:02;;;;;;;5.80;1.80;;;13.90;99.90;;;;;;4969006;28;20216;-59
2022/09/16 04:36:30;;;;;;;5.83;2.47;;;13.90;99.90;;;;;;4985673;28;20308;-59
2022/09/16 04:38:57;;;;;;;3.83;1.70;;;13.70;31.90;;;;;;4986188;28;20386;-60
2022/09/16 04:41:25;;;;;;;3.83;1.67;;;13.70;99.90;;;;;;4977277;28;20200;-61
2022/09/16 04:43:57;;;;;;;2.73;1.27;;;13.90;1.00;;;;;;4986309;28;20194;-59
2022/09/16 04:46:26;;;;;;;3.40;1.73;;;14.10;99.90;;;;;;4999169;28;20197;-58
2022/09/16 04:48:54;;;;;;;4.43;1.70;;;14.10;85.20;;;;;;4978107;28;20206;-57
2022/09/16 04:51:21;;;;;;;4.03;1.50;;;14.10;99.90;;;;;;4982174;28;20576;-58
2022/09/16 04:53:48;;;;;;;9.20;2.57;;;14.40;99.90;;;;;;4985479;28;20277;-57
2022/09/16 04:56:18;;;;;;;16.88;7.80;;;14.80;96.70;;;;;;4981769;28;20216;-57
2022/09/16 04:58:47;;;;;;;13.73;8.10;;;14.90;1.00;;;;;;4983208;28;20619;-59
2022/09/16 05:01:20;;;;;;;20.92;14.38;;;14.80;1.00;;;;;;4982092;28;20731;-60
2022/09/16 05:03:49;;;;;;;15.43;9.75;;;15.00;1.00;;;;;;4985216;28;20353;-60
2022/09/16 05:06:28;;;;;;;12.85;6.75;;;15.00;1.00;;;;;;4973517;28;20227;-58
2022/09/16 05:08:56;;;;;;;9.35;7.20;;;14.90;1.00;;;;;;4965145;28;20280;-59
2022/09/16 05:11:28;;;;;;;9.52;4.75;;;15.10;1.00;;;;;;4981450;28;20201;-60
2022/09/16 05:14:02;;;;;;;8.77;6.60;;;15.00;1.00;;;;;;4981187;28;20232;-59
2022/09/16 05:16:31;;;;;;;8.98;4.57;;;14.90;1.00;;;;;;4981428;28;20193;-60
2022/09/16 05:19:00;;;;;;;9.00;4.78;;;14.90;1.00;;;;;;4984251;28;20280;-59
2022/09/16 05:21:28;;;;;;;5.90;3.17;;;14.90;1.00;;;;;;4950671;28;20201;-60
2022/09/16 05:23:58;;;;;;;7.38;3.78;;;15.00;1.00;;;;;;4982494;28;20693;-60
2022/09/16 05:26:27;;;;;;;8.90;4.78;;;15.10;1.00;;;;;;4981829;28;20205;-57
2022/09/16 05:28:54;;;;;;;19.10;11.52;;;15.10;1.00;;;;;;4979113;28;20201;-58
2022/09/16 05:31:25;;;;;;;9.40;4.15;;;15.10;1.00;;;;;;4980541;28;20217;-58
2022/09/16 05:34:12;;;;;;;11.57;6.63;;;15.10;1.00;;;;;;4981503;28;20194;-58
2022/09/16 05:36:42;;;;;;;9.60;4.30;;;15.10;1.00;;;;;;4996171;28;20288;-60
2022/09/16 05:39:10;;;;;;;7.45;2.92;;;15.10;1.00;;;;;;4981858;28;20601;-60
2022/09/16 05:41:55;;;;;;;14.15;5.70;;;15.10;1.00;;;;;;4964462;28;20197;-59
2022/09/16 05:44:23;;;;;;;15.85;9.35;;;15.30;1.00;;;;;;4982776;28;20245;-60
2022/09/16 05:46:51;;;;;;;9.43;4.38;;;15.50;1.00;;;;;;4982967;28;20247;-60
2022/09/16 05:49:19;;;;;;;10.73;4.75;;;15.60;99.90;;;;;;4967953;28;20217;-60
2022/09/16 05:51:47;;;;;;;6.85;4.30;;;15.30;1.00;;;;;;4982450;28;20624;-59
2022/09/16 05:54:17;;;;;;;5.70;2.20;;;15.20;1.00;;;;;;4978496;28;20205;-59
2022/09/16 05:56:45;;;;;;;10.07;2.20;;;15.40;1.00;;;;;;4983899;28;20204;-61
2022/09/16 05:59:13;;;;;;;6.50;2.00;;;15.40;1.00;;;;;;4997883;28;20625;-60
2022/09/16 06:01:40;;;;;;;7.45;2.40;;;15.20;1.00;;;;;;4983494;28;20214;-60
2022/09/16 06:04:10;;;;;;;6.95;2.30;;;15.10;1.00;;;;;;4965398;28;20186;-60
2022/09/16 06:06:42;;;;;;;15.07;9.20;;;14.70;1.00;;;;;;4978635;28;20193;-60
2022/09/16 06:09:13;;;;;;;24.53;14.60;;;14.60;1.00;;;;;;4967401;28;20225;-60
2022/09/16 06:11:42;;;;;;;16.13;11.70;;;14.50;1.00;;;;;;4984956;28;20223;-60
2022/09/16 06:14:10;;;;;;;17.93;8.77;;;14.50;1.00;;;;;;4985100;28;20196;-60
2022/09/16 06:16:37;;;;;;;12.10;5.70;;;14.50;1.00;;;;;;4974579;28;20437;-60
2022/09/16 06:19:09;;;;;;;4.40;3.03;;;14.60;1.00;;;;;;4975435;28;20201;-59
2022/09/16 06:21:37;;;;;;;6.73;3.07;;;14.60;1.00;;;;;;4987675;28;20201;-60
2022/09/16 06:24:08;;;;;;;5.57;2.67;;;14.70;1.00;;;;;;4986386;28;21006;-60
2022/09/16 06:26:37;;;;;;;4.50;2.10;;;15.00;1.00;;;;;;4988861;28;20216;-60
2022/09/16 06:29:05;;;;;;;11.63;2.53;;;15.20;1.00;;;;;;4988271;28;20197;-60
2022/09/16 06:31:33;;;;;;;6.15;2.15;;;15.40;1.00;;;;;;4992931;28;20205;-60
2022/09/16 06:34:00;;;;;;;8.27;2.20;;;15.60;99.90;;;;;;4989593;28;20193;-60
2022/09/16 06:36:35;;;;;;;4.78;1.67;;;15.60;99.90;;;;;;4988910;28;20200;-60
2022/09/16 06:39:05;;;;;;;11.00;1.60;;;15.30;99.90;;;;;;4989115;28;20201;-61
2022/09/16 06:41:33;;;;;;;7.10;3.33;;;14.70;1.00;;;;;;4987926;28;20212;-61
2022/09/16 06:44:00;;;;;;;8.07;7.20;;;14.90;1.00;;;;;;4990293;28;20197;-61
2022/09/16 06:46:28;;;;;;;14.48;10.73;;;15.00;1.00;;;;;;4966944;28;20225;-62
2022/09/16 06:48:57;;;;;;;13.63;9.45;;;15.10;1.00;;;;;;4993943;28;20189;-59
2022/09/16 06:51:30;;;;;;;6.82;2.97;;;15.30;99.90;;;;;;4990610;28;20181;-60
2022/09/16 06:54:02;;;;;;;6.50;4.85;;;15.40;99.90;;;;;;4989731;28;20193;-61
2022/09/16 06:56:30;;;;;;;12.80;9.55;;;15.50;99.90;;;;;;4992498;28;20660;-60
2022/09/16 06:58:57;;;;;;;11.20;6.97;;;15.60;99.90;;;;;;4993800;28;21090;-60
2022/09/16 07:01:27;;;;;;;9.45;5.88;;;15.40;99.90;;;;;;4983050;28;20763;-60
2022/09/16 07:03:56;;;;;;;5.10;4.03;;;15.60;99.90;;;;;;4989749;28;20201;-60
2022/09/16 07:06:26;;;;;;;5.43;2.20;;;15.90;99.90;;;;;;4991305;28;20214;-60
2022/09/16 07:09:13;;;;;;;4.70;2.50;;;16.20;99.90;;;;;;4992564;28;20193;-60
2022/09/16 07:11:40;;;;;;;5.63;3.00;;;16.30;99.90;;;;;;4971076;28;20221;-60
2022/09/16 07:14:08;;;;;;;3.75;2.38;;;16.10;99.90;;;;;;4991138;28;20219;-60
2022/09/16 07:16:35;;;;;;;5.78;1.95;;;16.20;99.90;;;;;;5000001;28;20285;-60
2022/09/16 07:19:02;;;;;;;3.22;2.05;;;16.20;99.90;;;;;;4994002;28;20197;-60
2022/09/16 07:21:30;;;;;;;2.63;1.67;;;16.20;99.90;;;;;;4988773;28;20681;-60
2022/09/16 07:23:59;;;;;;;3.55;1.48;;;16.50;99.90;;;;;;4995322;28;20205;-60
2022/09/16 07:26:28;;;;;;;3.17;1.77;;;16.60;99.90;;;;;;4992547;28;20317;-60
2022/09/16 07:28:58;;;;;;;4.13;1.52;;;17.60;99.90;;;;;;4974585;28;20203;-61
2022/09/16 07:31:27;;;;;;;3.95;1.75;;;19.30;42.00;;;;;;4991008;28;20189;-59
2022/09/16 07:33:57;;;;;;;6.03;1.55;;;19.80;14.10;;;;;;4993457;28;20222;-59
2022/09/16 07:36:36;;;;;;;6.03;1.50;;;19.40;9.10;;;;;;4989475;28;21364;-59
2022/09/16 07:39:04;;;;;;;4.40;1.67;;;18.50;24.70;;;;;;4991896;28;20212;-59
2022/09/16 07:41:34;;;;;;;5.72;1.77;;;17.40;92.90;;;;;;4989735;28;20205;-61
2022/09/16 07:44:03;;;;;;;6.10;1.70;;;16.80;99.90;;;;;;4995543;28;20204;-61
2022/09/16 07:46:32;;;;;;;4.07;1.52;;;16.40;99.90;;;;;;4993437;28;20308;-62
2022/09/16 07:49:01;;;;;;;6.60;1.63;;;16.40;99.90;;;;;;4995685;28;20660;-65
2022/09/16 07:51:29;;;;;;;3.22;1.40;;;16.00;99.90;;;;;;4994956;28;20189;-61
2022/09/16 07:53:58;;;;;;;7.20;1.40;;;16.20;99.90;;;;;;4996907;28;20203;-61
2022/09/16 07:56:27;;;;;;;4.03;1.27;;;16.10;99.90;;;;;;4983285;28;20209;-61
2022/09/16 07:58:55;;;;;;;4.15;1.40;;;16.30;99.90;;;;;;4993435;28;20209;-61
2022/09/16 08:01:23;;;;;;;8.27;5.03;;;16.60;99.90;;;;;;4974720;28;20204;-61
2022/09/16 08:03:51;;;;;;;3.67;2.17;;;17.20;99.90;;;;;;4993486;28;20198;-63
2022/09/16 08:06:23;;;;;;;10.43;4.63;;;18.90;46.50;;;;;;4977043;28;20724;-60
2022/09/16 08:08:52;;;;;;;16.85;11.55;;;21.80;1.00;;;;;;4994528;28;20706;-60
2022/09/16 08:11:20;;;;;;;21.35;16.83;;;22.20;1.00;;;;;;4994614;28;20205;-62
2022/09/16 08:13:47;;;;;;;12.30;9.73;;;23.00;1.00;;;;;;4992074;28;20726;-60
2022/09/16 08:16:19;;;;;;;7.00;4.05;;;26.60;1.00;;;;;;4990798;28;20809;-59
2022/09/16 08:18:48;;;;;;;11.27;8.77;;;30.30;1.00;;;;;;4979974;28;20194;-59
2022/09/16 08:21:17;;;;;;;17.75;13.27;;;32.90;1.00;;;;;;4971993;28;20224;-60
2022/09/16 08:23:45;;;;;;;16.95;14.20;;;34.30;1.00;;;;;;4973765;28;20202;-60
2022/09/16 08:26:13;;;;;;;11.32;8.90;;;34.40;1.00;;;;;;4979716;28;20233;-60
2022/09/16 08:28:43;;;;;;;6.82;5.47;;;33.80;1.00;;;;;;5007646;28;20267;-59
2022/09/16 08:31:18;;;;;;;11.00;8.20;;;33.70;1.00;;;;;;4974733;28;20200;-60
2022/09/16 08:33:45;;;;;;;12.75;9.75;;;34.00;1.00;;;;;;4971202;28;20206;-60
2022/09/16 08:36:22;;;;;;;22.98;19.25;;;34.40;1.00;;;;;;4952494;28;20281;-61
2022/09/16 08:38:53;;;;;;;11.70;8.52;;;34.40;1.00;;;;;;4971496;28;20201;-60
2022/09/16 08:41:38;;;;;;;12.73;10.95;;;36.00;1.00;;;;;;4971250;28;20202;-60
2022/09/16 08:44:33;;;;;;;9.05;5.60;;;36.00;1.00;;;;;;4967278;28;20250;-60
2022/09/16 08:47:11;;;;;;;9.45;5.55;;;35.10;1.00;;;;;;4973064;28;20258;-60
2022/09/16 08:49:41;;;;;;;4.50;3.47;;;35.90;1.00;;;;;;4955992;28;20272;-60
2022/09/16 08:52:22;;;;;;;6.03;1.98;;;36.80;1.00;;;;;;4990132;28;20196;-60
2022/09/16 08:54:53;;;;;;;4.35;1.88;;;37.50;1.00;;;;;;4993652;28;20193;-60
2022/09/16 08:57:23;;;;;;;4.55;2.05;;;36.40;1.00;;;;;;4989976;28;20212;-60
2022/09/16 08:59:57;;;;;;;3.15;1.70;;;33.60;1.00;;;;;;4972060;28;20326;-61
2022/09/16 09:02:35;;;;;;;5.78;1.42;;;30.40;1.00;;;;;;4988265;28;20575;-60
2022/09/16 09:05:16;;;;;;;3.42;1.30;;;28.80;1.00;;;;;;4988428;28;20192;-60
2022/09/16 09:07:55;;;;;;;2.72;1.38;;;27.10;1.00;;;;;;4966442;28;20208;-60
2022/09/16 09:10:36;;;;;;;2.55;1.20;;;26.90;1.00;;;;;;4986313;28;20740;-60
2022/09/16 09:13:35;;;;;;;3.03;1.35;;;28.10;1.00;;;;;;4985947;28;20232;-60
2022/09/16 09:16:08;;;;;;;3.15;1.30;;;32.20;1.00;;;;;;4984327;28;20535;-60
2022/09/16 09:18:57;;;;;;;2.28;1.35;;;31.00;1.00;;;;;;4985564;28;20209;-60
2022/09/16 09:21:27;;;;;;;4.43;1.05;;;32.30;1.00;;;;;;4985845;28;20209;-60
2022/09/16 09:24:00;;;;;;;6.57;1.40;;;34.70;1.00;;;;;;4981606;28;20213;-59
2022/09/16 09:26:48;;;;;;;3.45;1.23;;;35.00;1.00;;;;;;4982989;28;20288;-60
2022/09/16 09:30:02;;;;;;;4.93;1.60;;;35.00;1.00;;;;;;4985121;28;20741;-61
2022/09/16 09:32:38;;;;;;;3.30;1.30;;;35.10;1.00;;;;;;4948742;28;20233;-60
2022/09/16 09:36:19;;;;;;;3.25;1.58;;;31.90;1.00;;;;;;4985346;28;20306;-59
2022/09/16 09:38:46;;;;;;;3.75;1.33;;;29.20;1.00;;;;;;4926364;28;20199;-59
2022/09/16 09:41:23;;;;;;;2.53;1.55;;;33.20;1.00;;;;;;4940999;28;20202;-60
2022/09/16 09:44:03;;;;;;;6.03;5.10;;;35.20;1.00;;;;;;4977694;28;20217;-60
2022/09/16 09:46:32;;;;;;;4.20;3.25;;;33.00;1.00;;;;;;4998961;28;20228;-59
2022/09/16 09:49:32;;;;;;;5.55;4.03;;;28.20;1.00;;;;;;4983716;28;20261;-58
2022/09/16 09:52:18;;;;;;;6.45;3.30;;;24.90;1.00;;;;;;4970052;28;20219;-58
2022/09/16 09:54:49;;;;;;;7.30;3.20;;;28.60;1.00;;;;;;4981376;28;20761;-58
2022/09/16 09:57:36;;;;;;;8.20;1.80;;;30.60;1.00;;;;;;4983772;28;20192;-58
2022/09/16 10:00:16;;;;;;;4.40;1.70;;;27.40;1.00;;;;;;4986587;28;20280;-57
2022/09/16 10:02:45;;;;;;;5.35;1.52;;;25.70;1.00;;;;;;4986443;28;20264;-58
2022/09/16 10:05:24;;;;;;;4.82;1.73;;;28.50;1.00;;;;;;4984917;28;20201;-58
2022/09/16 10:08:19;;;;;;;3.15;1.23;;;25.90;1.00;;;;;;4984279;28;20204;-58
2022/09/16 10:10:52;;;;;;;3.83;1.30;;;29.10;1.00;;;;;;4963306;28;20213;-58
2022/09/16 10:13:21;;;;;;;3.78;1.48;;;33.90;1.00;;;;;;4981032;28;20662;-59
2022/09/16 10:15:49;;;;;;;2.00;1.30;;;34.70;1.00;;;;;;4981949;28;20233;-59
2022/09/16 10:18:31;;;;;;;3.35;1.40;;;34.80;1.00;;;;;;4965734;28;20228;-60
2022/09/16 10:21:06;;;;;;;6.10;1.60;;;34.10;1.00;;;;;;4998352;28;20827;-65
2022/09/16 10:23:35;;;;;;;4.22;1.70;;;34.10;1.00;;;;;;4983021;28;20222;-65
2022/09/16 10:26:23;;;;;;;3.20;1.30;;;32.10;1.00;;;;;;4998175;28;20221;-59
2022/09/16 10:29:18;;;;;;;2.72;1.63;;;31.10;1.00;;;;;;4978846;28;20920;-60
2022/09/16 10:31:45;;;;;;;3.42;1.52;;;29.30;1.00;;;;;;4984169;28;20198;-64
2022/09/16 10:34:42;;;;;;;6.95;1.58;;;29.80;1.00;;;;;;4983713;28;20197;-59
2022/09/16 10:37:11;;;;;;;6.85;1.75;;;32.40;1.00;;;;;;4971556;28;20222;-60
2022/09/16 10:39:42;;;;;;;4.45;1.30;;;33.60;1.00;;;;;;4979999;28;20206;-60
2022/09/16 10:42:22;;;;;;;3.70;1.23;;;34.90;1.00;;;;;;4979457;28;20201;-60
2022/09/16 10:44:52;;;;;;;3.38;1.42;;;34.60;1.00;;;;;;4984341;28;20197;-60
2022/09/16 10:47:23;;;;;;;7.10;1.60;;;33.00;1.00;;;;;;4998462;28;20210;-59
2022/09/16 10:50:00;;;;;;;4.25;1.30;;;30.60;1.00;;;;;;4982614;28;20204;-60
2022/09/16 10:52:29;;;;;;;6.38;1.63;;;28.30;1.00;;;;;;4981306;28;20209;-59
2022/09/16 10:55:08;;;;;;;4.18;1.40;;;27.10;1.00;;;;;;4982778;28;20205;-58
2022/09/16 10:57:39;;;;;;;6.57;1.60;;;26.50;1.00;;;;;;4978135;28;20237;-59
2022/09/16 11:00:16;;;;;;;5.85;1.33;;;25.70;1.00;;;;;;4983289;28;20205;-59
2022/09/16 11:03:01;;;;;;;4.70;1.33;;;26.90;1.00;;;;;;4983252;28;20193;-59
2022/09/16 11:05:58;;;;;;;4.75;1.38;;;26.40;1.00;;;;;;4975807;28;20202;-58
2022/09/16 11:08:47;;;;;;;5.38;1.70;;;24.60;1.00;;;;;;4984869;28;20706;-57
2022/09/16 11:11:34;;;;;;;5.65;1.45;;;23.70;1.00;;;;;;4987942;28;20280;-58
2022/09/16 11:14:24;;;;;;;7.82;1.58;;;26.20;1.00;;;;;;4999409;28;20256;-58
2022/09/16 11:16:53;;;;;;;6.97;4.60;;;28.20;1.00;;;;;;5007682;28;20719;-60
2022/09/16 11:20:18;;;;;;;5.10;3.33;;;27.80;1.00;;;;;;5006847;28;20213;-58
2022/09/16 11:22:49;;;;;;;6.15;4.57;;;27.40;1.00;;;;;;4983986;28;20288;-59
2022/09/16 11:25:25;;;;;;;10.07;2.20;;;28.70;1.00;;;;;;4986673;28;20232;-58
2022/09/16 11:28:01;;;;;;;4.07;1.90;;;25.90;1.00;;;;;;4987520;28;20324;-59
2022/09/16 11:30:36;;;;;;;4.95;3.20;;;23.70;1.00;;;;;;5006011;28;20782;-58
2022/09/16 11:33:42;;;;;;;5.10;4.60;;;24.50;1.00;;;;;;5007163;28;20201;-59
2022/09/16 11:36:15;;;;;;;7.47;6.20;;;25.00;1.00;;;;;;4981468;28;20217;-61
2022/09/16 11:38:54;;;;;;;2.70;1.73;;;26.10;1.00;;;;;;5009360;28;20197;-59
2022/09/16 11:41:47;;;;;;;7.10;3.38;;;26.10;1.00;;;;;;5010881;28;20557;-59
2022/09/16 11:44:56;;;;;;;3.20;2.20;;;26.00;1.00;;;;;;4988264;28;20295;-60
2022/09/16 11:48:02;;;;;;;5.35;2.70;;;25.40;1.00;;;;;;4994918;28;20667;-59
2022/09/16 11:50:49;;;;;;;5.00;2.13;;;24.50;1.00;;;;;;4991996;28;20248;-59
2022/09/16 11:53:16;;;;;;;6.38;3.20;;;24.90;1.00;;;;;;5003643;28;20205;-62
2022/09/16 11:56:13;;;;;;;6.20;4.53;;;25.80;1.00;;;;;;5005211;28;20263;-60
2022/09/16 11:58:56;;;;;;;5.03;2.13;;;26.60;1.00;;;;;;5003863;28;20205;-60
2022/09/16 12:01:26;;;;;;;4.57;2.67;;;25.70;1.00;;;;;;5008453;28;20201;-59
2022/09/16 12:04:10;;;;;;;3.72;2.33;;;23.50;1.00;;;;;;5006999;28;20212;-60
2022/09/16 12:06:52;;;;;;;8.50;2.72;;;22.70;1.00;;;;;;5007342;28;20694;-59
2022/09/16 12:09:28;;;;;;;7.68;2.65;;;23.40;1.00;;;;;;5005622;28;20201;-60
2022/09/16 12:12:20;;;;;;;6.30;1.77;;;22.60;1.00;;;;;;5019103;28;20220;-60
2022/09/16 12:15:01;;;;;;;3.35;1.35;;;23.20;1.00;;;;;;5003330;28;20205;-61
2022/09/16 12:17:37;;;;;;;5.53;2.10;;;24.10;1.00;;;;;;4994795;28;20715;-60
2022/09/16 12:20:14;;;;;;;5.35;1.73;;;23.90;1.00;;;;;;5001967;28;20208;-60
2022/09/16 12:22:51;;;;;;;4.70;1.48;;;23.70;1.00;;;;;;4994479;28;20236;-60
2022/09/16 12:25:28;;;;;;;3.83;1.30;;;23.90;1.00;;;;;;4993300;28;20197;-60
2022/09/16 12:28:06;;;;;;;4.80;1.50;;;22.60;1.00;;;;;;4995655;28;20241;-60
2022/09/16 12:30:38;;;;;;;4.50;1.50;;;22.00;1.00;;;;;;4996699;28;20192;-60
2022/09/16 12:33:19;;;;;;;2.28;1.27;;;22.40;1.00;;;;;;5005395;28;20212;-60
2022/09/16 12:36:10;;;;;;;3.25;1.50;;;21.10;1.00;;;;;;5004552;28;20200;-60
2022/09/16 12:38:38;;;;;;;3.17;1.50;;;20.80;1.00;;;;;;5003659;28;20211;-61
2022/09/16 12:41:05;;;;;;;3.22;1.40;;;21.90;1.00;;;;;;5003428;28;20323;-60
2022/09/16 12:43:48;;;;;;;5.53;1.50;;;22.10;1.00;;;;;;4984222;28;20201;-60
2022/09/16 12:46:33;;;;;;;3.28;1.50;;;21.70;1.00;;;;;;4983972;28;20229;-60
2022/09/16 12:49:41;;;;;;;5.57;1.23;;;21.40;1.00;;;;;;5003403;28;20192;-60
2022/09/16 12:52:20;;;;;;;2.50;1.00;;;20.90;1.00;;;;;;5001305;28;20224;-59
2022/09/16 12:55:05;;;;;;;2.60;1.17;;;19.10;1.00;;;;;;5001046;28;20281;-59
2022/09/16 12:58:07;;;;;;;2.03;1.00;;;19.00;1.00;;;;;;5002702;28;20200;-59
2022/09/16 13:00:47;;;;;;;3.75;1.10;;;18.70;1.00;;;;;;5004914;28;20196;-59
2022/09/16 13:03:18;;;;;;;2.65;1.38;;;18.70;1.00;;;;;;5002024;28;20766;-60
2022/09/16 13:05:51;;;;;;;3.53;1.40;;;18.00;1.00;;;;;;5004566;28;20719;-60
2022/09/16 13:08:30;;;;;;;3.22;1.10;;;18.90;1.00;;;;;;5003256;28;20304;-60
2022/09/16 13:11:03;;;;;;;4.97;0.90;;;19.30;1.00;;;;;;5002884;28;20240;-60
2022/09/16 13:13:57;;;;;;;2.20;1.23;;;19.50;1.00;;;;;;5000687;28;20704;-59
2022/09/16 13:16:31;;;;;;;4.93;1.35;;;19.10;1.00;;;;;;5001979;28;20216;-60
2022/09/16 13:19:45;;;;;;;17.95;9.93;;;18.90;1.00;;;;;;4997785;28;20386;-60
2022/09/16 13:22:20;;;;;;;10.18;7.95;;;18.90;1.00;;;;;;4948477;28;20290;-60
2022/09/16 13:25:08;;;;;;;7.88;4.78;;;18.80;1.00;;;;;;4999945;28;20207;-60
2022/09/16 13:27:38;;;;;;;11.60;7.88;;;18.80;1.00;;;;;;5001283;28;20667;-60
2022/09/16 13:30:07;;;;;;;4.85;2.40;;;18.60;1.00;;;;;;5003369;28;20858;-61
2022/09/16 13:32:39;;;;;;;2.30;1.13;;;18.50;1.00;;;;;;5001087;28;20772;-60